createdAt,value
2019-02-28T04:49:14.428Z,3.54
2019-02-28T04:51:45.174Z,3.58
2019-02-28T04:54:15.673Z,3.79
2019-02-28T04:56:46.565Z,3.97
2019-02-28T04:59:17.380Z,4.11
2019-02-28T05:01:47.874Z,4.22
2019-02-28T05:04:18.441Z,4.33
2019-02-28T05:06:48.972Z,4.42
2019-02-28T05:09:19.504Z,4.47
2019-02-28T05:11:50.033Z,4.51
2019-02-28T05:14:23.627Z,4.56
2019-02-28T05:16:52.838Z,4.65
2019-02-28T05:19:23.368Z,4.71
2019-02-28T05:21:54.345Z,4.78
2019-02-28T05:24:25.143Z,4.86
2019-02-28T05:26:57.313Z,4.93
2019-02-28T05:29:28.971Z,5.02
2019-02-28T05:32:00.945Z,5.10
2019-02-28T05:34:31.783Z,5.15
2019-02-28T05:37:02.312Z,5.21
2019-02-28T05:39:32.836Z,5.26
2019-02-28T05:42:03.334Z,5.30
2019-02-28T05:44:33.901Z,5.37
2019-02-28T05:47:04.428Z,5.42
2019-02-28T05:49:35.057Z,5.45
2019-02-28T05:52:05.586Z,5.49
2019-02-28T05:54:36.216Z,5.52
2019-02-28T05:57:08.187Z,5.54
2019-02-28T05:59:38.927Z,5.54
2019-02-28T06:02:09.552Z,5.59
2019-02-28T06:04:40.051Z,5.59
2019-02-28T06:07:10.612Z,5.60
2019-02-28T06:09:41.079Z,5.61
2019-02-28T06:12:11.576Z,5.62
2019-02-28T06:14:42.211Z,5.67
2019-02-28T06:17:12.685Z,5.70
2019-02-28T06:19:44.264Z,5.76
2019-02-28T06:22:14.823Z,5.83
2019-02-28T06:24:45.958Z,5.91
2019-02-28T06:27:16.499Z,5.98
2019-02-28T06:29:47.021Z,6.07
2019-02-28T06:32:23.208Z,6.17
2019-02-28T06:34:49.826Z,6.26
2019-02-28T06:37:20.311Z,6.43
2019-02-28T06:39:50.892Z,6.58
2019-02-28T06:42:21.517Z,6.73
2019-02-28T06:44:52.009Z,6.84
2019-02-28T06:47:22.581Z,6.98
2019-02-28T06:49:53.129Z,7.05
2019-02-28T06:52:25.275Z,7.17
2019-02-28T06:54:55.818Z,7.23
2019-02-28T06:57:30.339Z,7.33
2019-02-28T07:00:00.886Z,7.41
2019-02-28T07:02:32.992Z,7.54
2019-02-28T07:05:03.563Z,7.64
2019-02-28T07:07:34.123Z,7.73
2019-02-28T07:10:09.653Z,7.81
2019-02-28T07:12:41.457Z,7.93
2019-02-28T07:15:12.235Z,8.06
2019-02-28T07:17:46.303Z,8.14
2019-02-28T07:20:18.323Z,8.29
2019-02-28T07:22:54.696Z,8.29
2019-02-28T07:25:21.118Z,8.15
2019-02-28T07:27:51.650Z,8.16
2019-02-28T07:30:22.181Z,8.27
2019-02-28T07:32:52.644Z,8.26
2019-02-28T07:35:23.144Z,8.38
2019-02-28T07:37:54.536Z,8.44
2019-02-28T07:40:25.166Z,8.49
2019-02-28T07:42:55.700Z,8.52
2019-02-28T07:45:26.283Z,8.55
2019-02-28T07:47:56.921Z,8.59
2019-02-28T07:50:27.552Z,8.47
2019-02-28T07:52:58.025Z,8.55
2019-02-28T07:55:30.513Z,8.66
2019-02-28T07:58:00.781Z,8.68
2019-02-28T08:00:31.616Z,8.74
2019-02-28T08:03:02.148Z,8.91
2019-02-28T08:05:32.634Z,8.91
2019-02-28T08:08:03.417Z,9.08
2019-02-28T08:10:34.934Z,9.07
2019-02-28T08:13:05.496Z,9.22
2019-02-28T08:15:35.968Z,9.26
2019-02-28T08:18:06.566Z,9.38
2019-02-28T08:20:37.301Z,9.41
2019-02-28T08:23:08.064Z,9.43
2019-02-28T08:25:39.724Z,9.68
2019-02-28T08:28:10.944Z,9.54
2019-02-28T08:30:41.575Z,9.61
2019-02-28T08:33:12.126Z,9.67
2019-02-28T08:35:42.740Z,9.71
2019-02-28T08:38:13.166Z,9.85
2019-02-28T08:40:43.696Z,9.89
2019-02-28T08:43:14.323Z,9.84
2019-02-28T08:45:44.893Z,9.79
2019-02-28T08:48:15.365Z,9.96
2019-02-28T08:50:45.919Z,10.08
2019-02-28T08:53:16.444Z,10.14
2019-02-28T08:55:47.085Z,10.13
2019-02-28T08:58:17.718Z,10.12
2019-02-28T09:00:48.285Z,10.08
2019-02-28T09:03:18.830Z,10.09
2019-02-28T09:05:49.314Z,10.15
2019-02-28T09:08:22.438Z,10.21
2019-02-28T09:10:52.133Z,10.20
2019-02-28T09:13:22.759Z,10.28
2019-02-28T09:15:53.338Z,10.39
2019-02-28T09:18:24.014Z,10.36
2019-02-28T09:20:54.643Z,10.30
2019-02-28T09:23:25.269Z,10.53
2019-02-28T09:25:56.765Z,10.66
2019-02-28T09:28:28.034Z,10.79
2019-02-28T09:31:01.338Z,10.82
2019-02-28T09:33:31.287Z,10.85
2019-02-28T09:36:01.917Z,11.02
2019-02-28T09:38:33.676Z,11.17
2019-02-28T09:41:05.293Z,11.19
2019-02-28T09:43:35.972Z,11.28
2019-02-28T09:46:06.705Z,11.31
2019-02-28T09:48:38.017Z,11.50
2019-02-28T09:51:09.611Z,11.59
2019-02-28T09:53:40.107Z,11.57
2019-02-28T09:56:10.671Z,11.61
2019-02-28T09:58:41.146Z,11.81
2019-02-28T10:01:12.616Z,11.65
2019-02-28T10:03:43.109Z,11.67
2019-02-28T10:06:16.368Z,11.53
2019-02-28T10:08:45.891Z,11.60
2019-02-28T10:11:16.417Z,11.71
2019-02-28T10:13:49.644Z,11.93
2019-02-28T10:16:19.218Z,11.86
2019-02-28T10:18:49.750Z,11.97
2019-02-28T10:21:20.314Z,12.09
2019-02-28T10:23:53.408Z,12.08
2019-02-28T10:26:23.293Z,11.92
2019-02-28T10:28:54.027Z,11.95
2019-02-28T10:31:35.141Z,12.01
2019-02-28T10:33:56.954Z,12.05
2019-02-28T10:36:27.553Z,12.16
2019-02-28T10:38:58.198Z,12.29
2019-02-28T10:41:31.152Z,12.54
2019-02-28T10:44:00.993Z,12.47
2019-02-28T10:46:31.633Z,12.50
2019-02-28T10:49:02.263Z,12.53
2019-02-28T10:51:32.891Z,12.37
2019-02-28T10:54:04.562Z,12.35
2019-02-28T10:56:35.091Z,12.44
2019-02-28T10:59:05.714Z,12.40
2019-02-28T11:01:39.171Z,12.56
2019-02-28T11:04:08.549Z,12.75
2019-02-28T11:06:39.665Z,12.60
2019-02-28T11:09:13.481Z,12.68
2019-02-28T11:11:45.638Z,12.72
2019-02-28T11:14:16.642Z,12.74
2019-02-28T11:16:47.316Z,12.68
2019-02-28T11:19:19.433Z,12.80
2019-02-28T11:21:50.221Z,12.90
2019-02-28T11:24:23.978Z,12.75
2019-02-28T11:26:55.567Z,12.53
2019-02-28T11:29:26.179Z,12.51
2019-02-28T11:31:56.667Z,12.50
2019-02-28T11:34:28.361Z,12.51
2019-02-28T11:36:58.942Z,12.47
2019-02-28T11:39:30.542Z,12.66
2019-02-28T11:42:01.839Z,12.45
2019-02-28T11:44:32.399Z,12.38
2019-02-28T11:47:02.999Z,12.44
2019-02-28T11:49:33.744Z,12.53
2019-02-28T11:52:04.384Z,12.50
2019-02-28T11:54:35.105Z,12.50
2019-02-28T11:57:06.803Z,12.63
2019-02-28T11:59:37.608Z,12.74
2019-02-28T12:02:08.165Z,12.86
2019-02-28T12:04:40.494Z,12.69
2019-02-28T12:07:11.349Z,12.73
2019-02-28T12:09:42.075Z,12.78
2019-02-28T12:12:12.645Z,12.88
2019-02-28T12:14:43.247Z,12.90
2019-02-28T12:17:15.133Z,12.93
2019-02-28T12:19:47.659Z,12.82
2019-02-28T12:22:18.993Z,13.01
2019-02-28T12:24:49.561Z,13.18
2019-02-28T12:27:20.046Z,13.01
2019-02-28T12:29:50.624Z,12.84
2019-02-28T12:32:21.316Z,13.02
2019-02-28T12:34:51.810Z,13.06
2019-02-28T12:37:23.112Z,13.18
2019-02-28T12:39:53.776Z,13.22
2019-02-28T12:42:24.264Z,13.24
2019-02-28T12:44:54.837Z,13.27
2019-02-28T12:47:26.961Z,13.31
2019-02-28T12:49:57.897Z,13.38
2019-02-28T12:52:28.470Z,13.44
2019-02-28T12:54:59.023Z,13.20
2019-02-28T12:57:29.642Z,13.18
2019-02-28T13:00:00.298Z,13.17
2019-02-28T13:02:30.948Z,13.20
2019-02-28T13:05:01.541Z,13.14
2019-02-28T13:07:33.845Z,12.99
2019-02-28T13:10:07.067Z,13.06
2019-02-28T13:12:37.742Z,13.08
2019-02-28T13:15:13.071Z,13.23
2019-02-28T13:17:43.410Z,13.21
2019-02-28T13:20:16.806Z,13.26
2019-02-28T13:22:48.066Z,13.36
2019-02-28T13:25:19.363Z,13.28
2019-02-28T13:27:50.853Z,13.29
2019-02-28T13:30:23.077Z,13.22
2019-02-28T13:32:53.654Z,13.03
2019-02-28T13:35:29.978Z,13.00
2019-02-28T13:38:00.482Z,12.96
2019-02-28T13:40:31.039Z,13.12
2019-02-28T13:43:01.937Z,13.27
2019-02-28T13:45:32.833Z,13.12
2019-02-28T13:48:03.734Z,13.08
2019-02-28T13:50:36.386Z,13.12
2019-02-28T13:53:17.263Z,13.03
2019-02-28T13:55:42.055Z,13.00
2019-02-28T13:58:12.692Z,12.96
2019-02-28T14:00:45.799Z,13.01
2019-02-28T14:03:17.132Z,13.08
2019-02-28T14:05:47.794Z,13.22
2019-02-28T14:08:18.490Z,13.28
2019-02-28T14:10:49.328Z,13.34
2019-02-28T14:13:20.014Z,13.17
2019-02-28T14:15:52.933Z,13.02
2019-02-28T14:18:23.910Z,13.00
2019-02-28T14:20:54.940Z,12.87
2019-02-28T14:23:25.811Z,12.82
2019-02-28T14:25:56.511Z,12.76
2019-02-28T14:28:27.068Z,12.87
2019-02-28T14:30:58.700Z,12.82
2019-02-28T14:33:29.448Z,12.71
2019-02-28T14:36:00.126Z,12.54
2019-02-28T14:38:32.779Z,12.49
2019-02-28T14:41:03.082Z,12.33
2019-02-28T14:43:33.713Z,12.36
2019-02-28T14:46:04.370Z,12.33
2019-02-28T14:48:36.513Z,12.31
2019-02-28T14:51:07.178Z,12.29
2019-02-28T14:53:37.824Z,12.31
2019-02-28T14:56:08.500Z,12.16
2019-02-28T14:58:39.145Z,12.10
2019-02-28T15:01:09.982Z,12.08
2019-02-28T15:03:41.743Z,12.08
2019-02-28T15:06:12.279Z,12.03
2019-02-28T15:08:42.751Z,11.94
2019-02-28T15:11:13.306Z,11.89
2019-02-28T15:13:43.964Z,11.84
2019-02-28T15:16:14.562Z,11.85
2019-02-28T15:18:47.461Z,11.81
2019-02-28T15:21:17.909Z,11.80
2019-02-28T15:23:48.402Z,11.72
2019-02-28T15:26:19.201Z,11.63
2019-02-28T15:28:50.834Z,11.52
2019-02-28T15:31:21.330Z,11.44
2019-02-28T15:33:52.825Z,11.39
2019-02-28T15:36:24.283Z,11.27
2019-02-28T15:38:55.596Z,11.27
2019-02-28T15:41:26.254Z,11.17
2019-02-28T15:43:56.820Z,11.15
2019-02-28T15:46:27.383Z,11.00
2019-02-28T15:48:57.858Z,10.93
2019-02-28T15:51:29.278Z,10.79
2019-02-28T15:54:00.753Z,10.69
2019-02-28T15:56:31.281Z,10.54
2019-02-28T15:59:03.409Z,10.42
2019-02-28T16:01:34.057Z,10.31
2019-02-28T16:04:04.619Z,10.23
2019-02-28T16:06:35.358Z,10.13
2019-02-28T16:09:06.946Z,10.08
2019-02-28T16:11:40.958Z,9.97
2019-02-28T16:14:14.552Z,9.95
2019-02-28T16:16:42.702Z,9.84
2019-02-28T16:19:14.253Z,9.74
2019-02-28T16:21:44.782Z,9.66
2019-02-28T16:24:15.358Z,9.55
2019-02-28T16:26:45.848Z,9.43
2019-02-28T16:29:20.693Z,9.33
2019-02-28T16:31:48.750Z,9.26
2019-02-28T16:34:19.351Z,9.15
2019-02-28T16:36:49.910Z,9.09
2019-02-28T16:39:20.480Z,9.01
2019-02-28T16:41:50.971Z,8.93
2019-02-28T16:44:21.614Z,8.84
2019-02-28T16:46:52.125Z,8.70
2019-02-28T16:49:22.615Z,8.58
2019-02-28T16:51:53.328Z,8.51
2019-02-28T16:54:25.775Z,8.44
2019-02-28T16:56:56.111Z,8.31
2019-02-28T16:59:28.490Z,8.17
2019-02-28T17:01:59.571Z,8.00
2019-02-28T17:04:30.357Z,7.81
2019-02-28T17:07:02.625Z,7.68
2019-02-28T17:09:34.657Z,7.48
2019-02-28T17:12:10.206Z,7.34
2019-02-28T17:14:40.763Z,7.36
2019-02-28T17:17:12.891Z,7.35
2019-02-28T17:19:43.482Z,7.24
2019-02-28T17:22:14.110Z,7.08
2019-02-28T17:24:46.092Z,7.08
2019-02-28T17:27:22.754Z,7.00
2019-02-28T17:30:00.193Z,6.97
2019-02-28T17:32:31.404Z,6.95
2019-02-28T17:35:02.335Z,6.90
2019-02-28T17:37:33.362Z,6.85
2019-02-28T17:40:06.775Z,6.81
2019-02-28T17:42:38.599Z,6.75
2019-02-28T17:45:16.357Z,6.68
2019-02-28T17:48:12.859Z,6.64
2019-02-28T17:50:46.881Z,6.59
2019-02-28T17:53:20.691Z,6.51
2019-02-28T17:56:03.885Z,6.46
2019-02-28T17:59:04.482Z,6.44
2019-02-28T18:01:53.463Z,6.39
2019-02-28T18:04:39.309Z,6.37
2019-02-28T18:07:26.510Z,6.30
2019-02-28T18:10:20.951Z,6.27
2019-02-28T18:13:00.571Z,6.31
2019-02-28T18:15:34.379Z,6.35
2019-02-28T18:18:30.916Z,6.33
2019-02-28T18:21:21.359Z,6.30
2019-02-28T18:24:22.304Z,6.22
2019-02-28T18:27:18.880Z,6.19
2019-02-28T18:30:28.853Z,6.19
2019-02-28T18:32:59.407Z,6.12
2019-02-28T18:35:32.527Z,6.06
2019-02-28T18:38:03.223Z,5.99
2019-02-28T18:40:33.844Z,5.99
2019-02-28T18:43:04.464Z,5.94
2019-02-28T18:45:35.020Z,5.96
2019-02-28T18:48:05.642Z,5.93
2019-02-28T18:50:36.138Z,5.87
2019-02-28T18:53:06.910Z,5.85
2019-02-28T18:55:37.479Z,5.87
2019-02-28T18:58:08.110Z,5.78
2019-02-28T19:00:38.602Z,5.74
2019-02-28T19:03:09.342Z,5.81
2019-02-28T19:05:39.905Z,5.80
2019-02-28T19:08:10.605Z,5.81
2019-02-28T19:10:41.170Z,5.79
2019-02-28T19:13:11.774Z,5.82
2019-02-28T19:15:42.401Z,5.80
2019-02-28T19:18:13.039Z,5.75
2019-02-28T19:20:43.606Z,5.69
2019-02-28T19:23:14.161Z,5.63
2019-02-28T19:25:45.758Z,5.58
2019-02-28T19:28:16.386Z,5.54
2019-02-28T19:30:47.025Z,5.50
2019-02-28T19:33:17.615Z,5.40
2019-02-28T19:35:48.281Z,5.35
2019-02-28T19:38:18.925Z,5.33
2019-02-28T19:40:49.556Z,5.24
2019-02-28T19:43:20.493Z,5.20
2019-02-28T19:45:54.130Z,5.17
2019-02-28T19:48:24.700Z,5.11
2019-02-28T19:50:55.369Z,5.09
2019-02-28T19:53:25.931Z,5.07
2019-02-28T19:55:56.827Z,5.03
2019-02-28T19:58:27.512Z,5.04
2019-02-28T20:00:58.047Z,5.03
2019-02-28T20:03:28.629Z,4.97
2019-02-28T20:05:59.119Z,4.93
2019-02-28T20:08:29.698Z,4.94
2019-02-28T20:11:01.267Z,4.93
2019-02-28T20:13:31.913Z,4.95
2019-02-28T20:16:02.512Z,4.99
2019-02-28T20:18:34.178Z,4.99
2019-02-28T20:21:04.706Z,5.01
2019-02-28T20:23:35.332Z,5.02
2019-02-28T20:26:06.210Z,4.98
2019-02-28T20:28:36.844Z,4.95
2019-02-28T20:31:07.468Z,4.92
2019-02-28T20:33:38.029Z,4.88
2019-02-28T20:36:08.699Z,4.76
2019-02-28T20:38:39.344Z,4.69
2019-02-28T20:41:09.970Z,4.70
2019-02-28T20:43:40.569Z,4.71
2019-02-28T20:46:11.242Z,4.66
2019-02-28T20:48:41.872Z,4.59
2019-02-28T20:51:12.502Z,4.52
2019-02-28T20:53:43.141Z,4.48
2019-02-28T20:56:13.769Z,4.40
2019-02-28T20:58:44.397Z,4.36
2019-02-28T21:01:16.057Z,4.34
2019-02-28T21:03:46.799Z,4.29
2019-02-28T21:06:17.430Z,4.27
2019-02-28T21:08:48.062Z,4.26
2019-02-28T21:11:18.724Z,4.29
2019-02-28T21:13:49.428Z,4.30
2019-02-28T21:16:20.073Z,4.31
2019-02-28T21:18:50.697Z,4.31
2019-02-28T21:21:21.324Z,4.27
